createdAt,value
2018-03-21T05:06:37.229Z,84.60
2018-03-21T05:09:04.812Z,84.70
2018-03-21T05:11:32.824Z,84.70
2018-03-21T05:14:00.368Z,84.70
2018-03-21T05:16:27.961Z,84.50
2018-03-21T05:18:56.415Z,84.30
2018-03-21T05:21:24.846Z,84.50
2018-03-21T05:23:52.402Z,84.80
2018-03-21T05:26:19.974Z,84.50
2018-03-21T05:28:47.516Z,84.70
2018-03-21T05:31:15.118Z,84.50
2018-03-21T05:33:42.673Z,84.30
2018-03-21T05:36:10.258Z,84.20
2018-03-21T05:38:38.451Z,84.10
2018-03-21T05:41:06.250Z,84.00
2018-03-21T05:43:33.850Z,84.00
2018-03-21T05:46:01.413Z,83.90
2018-03-21T05:48:29.002Z,83.80
2018-03-21T05:50:57.270Z,84.10
2018-03-21T05:53:25.707Z,84.00
2018-03-21T05:55:53.257Z,84.20
2018-03-21T05:58:20.868Z,84.00
2018-03-21T06:00:48.434Z,83.50
2018-03-21T06:03:16.086Z,83.30
2018-03-21T06:05:43.650Z,83.00
2018-03-21T06:08:11.538Z,82.80
2018-03-21T06:10:39.145Z,82.70
2018-03-21T06:13:06.733Z,82.90
2018-03-21T06:15:34.293Z,82.50
2018-03-21T06:18:02.227Z,82.60
2018-03-21T06:20:29.751Z,82.60
2018-03-21T06:22:57.310Z,82.30
2018-03-21T06:25:24.853Z,81.80
2018-03-21T06:27:52.432Z,81.40
2018-03-21T06:30:20.477Z,81.40
2018-03-21T06:32:48.069Z,81.40
2018-03-21T06:35:15.706Z,81.10
2018-03-21T06:37:43.310Z,81.30
2018-03-21T06:40:10.907Z,80.20
2018-03-21T06:42:38.929Z,79.10
2018-03-21T06:45:06.537Z,79.10
2018-03-21T06:47:34.069Z,79.20
2018-03-21T06:50:01.695Z,79.50
2018-03-21T06:52:29.218Z,79.30
2018-03-21T06:54:57.213Z,79.10
2018-03-21T06:57:24.790Z,79.10
2018-03-21T06:59:52.530Z,79.30
2018-03-21T07:02:20.105Z,79.20
2018-03-21T07:04:49.368Z,77.90
2018-03-21T07:07:17.041Z,77.50
2018-03-21T07:10:14.916Z,75.80
2018-03-21T07:12:42.505Z,75.80
2018-03-21T07:15:21.652Z,75.30
2018-03-21T07:17:49.288Z,75.00
2018-03-21T07:20:16.923Z,74.20
2018-03-21T07:22:44.553Z,74.00
2018-03-21T07:25:12.122Z,73.70
2018-03-21T07:27:39.719Z,73.70
2018-03-21T07:30:07.300Z,73.50
2018-03-21T07:32:34.877Z,73.20
2018-03-21T07:35:02.419Z,72.80
2018-03-21T07:37:29.981Z,72.40
2018-03-21T07:39:57.541Z,73.00
2018-03-21T07:42:25.090Z,72.60
2018-03-21T07:44:53.509Z,72.90
2018-03-21T07:47:21.104Z,73.50
2018-03-21T07:49:49.098Z,73.00
2018-03-21T07:52:16.646Z,73.00
2018-03-21T07:54:44.225Z,72.50
2018-03-21T07:57:11.877Z,72.00
2018-03-21T07:59:39.446Z,72.40
2018-03-21T08:02:08.862Z,72.90
2018-03-21T08:04:37.517Z,72.90
2018-03-21T08:07:10.667Z,72.90
2018-03-21T08:09:38.671Z,72.30
2018-03-21T08:12:06.713Z,72.60
2018-03-21T08:14:34.289Z,72.60
2018-03-21T16:05:25.505Z,30.60
2018-03-21T16:08:07.044Z,30.90
2018-03-21T16:10:44.683Z,30.90
2018-03-21T16:13:19.182Z,31.50
2018-03-21T16:15:53.871Z,32.20
2018-03-21T16:18:34.558Z,32.60
2018-03-21T16:24:00.423Z,30.80
2018-03-21T16:26:32.976Z,32.40
2018-03-21T16:29:05.021Z,32.50
2018-03-21T16:31:39.241Z,34.00
2018-03-21T16:34:34.920Z,33.30
2018-03-21T16:37:13.928Z,33.80
2018-03-21T16:39:46.574Z,33.80
2018-03-21T16:45:13.004Z,34.60
2018-03-21T16:47:40.784Z,34.60
2018-03-21T16:50:14.225Z,37.30
2018-03-21T16:52:41.890Z,37.20
2018-03-21T16:55:13.881Z,39.70
2018-03-21T16:57:41.647Z,40.90
2018-03-21T17:00:12.725Z,39.60
2018-03-21T17:02:41.298Z,37.00
2018-03-21T17:05:12.612Z,35.30
2018-03-21T17:07:41.689Z,34.10
2018-03-21T17:10:10.965Z,36.50
2018-03-21T17:12:41.332Z,38.20
2018-03-21T17:15:09.052Z,37.30
2018-03-21T17:17:37.029Z,36.40
2018-03-21T17:20:05.878Z,35.60
2018-03-21T17:22:35.763Z,36.30
2018-03-21T17:25:03.464Z,37.00
2018-03-21T17:27:31.204Z,39.40
2018-03-21T17:29:58.857Z,41.70
2018-03-21T17:32:27.188Z,43.30
2018-03-21T17:34:54.795Z,45.20
2018-03-21T17:37:23.323Z,46.10
2018-03-21T17:39:51.920Z,50.10
2018-03-21T17:42:20.756Z,51.90
2018-03-21T17:44:48.315Z,51.90
2018-03-21T17:47:16.050Z,50.20
2018-03-21T17:49:43.629Z,50.90
2018-03-21T17:52:12.087Z,51.20
2018-03-21T17:54:39.675Z,52.10
2018-03-21T17:57:08.225Z,52.80
2018-03-21T17:59:36.171Z,54.20
2018-03-21T18:02:03.827Z,53.70
2018-03-21T18:04:31.448Z,55.40
2018-03-21T18:06:59.229Z,56.20
2018-03-21T18:09:26.859Z,55.50
2018-03-21T18:11:54.432Z,54.90
2018-03-21T18:14:22.949Z,55.60
2018-03-21T18:16:50.562Z,54.10
2018-03-21T18:19:18.209Z,58.70
2018-03-21T18:21:45.844Z,56.00
2018-03-21T18:24:13.420Z,54.80
2018-03-21T18:26:41.037Z,56.00
2018-03-21T18:29:08.660Z,56.10
2018-03-21T18:31:36.234Z,54.40
2018-03-21T18:34:03.816Z,55.10
2018-03-21T18:36:31.434Z,55.80
2018-03-21T18:38:59.036Z,57.00
2018-03-21T18:41:26.636Z,57.20
2018-03-21T18:43:54.601Z,57.20
2018-03-21T18:46:23.552Z,57.30
2018-03-21T18:48:51.130Z,57.30
2018-03-21T18:51:18.810Z,57.00
2018-03-21T18:53:46.426Z,58.60
2018-03-21T18:56:14.017Z,58.10
2018-03-21T18:58:41.616Z,58.70
2018-03-21T19:01:09.273Z,59.80
2018-03-21T19:03:36.875Z,60.10
2018-03-21T19:06:04.459Z,60.70
2018-03-21T19:08:32.131Z,60.60
2018-03-21T19:10:59.741Z,61.60
2018-03-21T19:13:27.350Z,62.10
2018-03-21T19:15:54.948Z,62.40
2018-03-21T19:18:22.512Z,62.50
2018-03-21T19:20:50.090Z,62.90
2018-03-21T19:23:17.680Z,62.90
2018-03-21T19:25:45.277Z,63.50
2018-03-21T19:28:12.907Z,63.80
2018-03-21T19:30:40.498Z,64.00
2018-03-21T19:33:08.821Z,62.70
2018-03-21T19:35:36.382Z,63.50
2018-03-21T19:38:04.019Z,63.00
2018-03-21T19:40:31.606Z,63.80
2018-03-21T19:42:59.196Z,64.20
2018-03-21T19:45:27.147Z,63.10
2018-03-21T19:47:54.784Z,63.10
2018-03-21T19:50:22.391Z,62.50
2018-03-21T19:52:50.353Z,61.70
2018-03-21T19:55:17.943Z,61.60
2018-03-21T19:57:46.294Z,60.80
2018-03-21T20:00:13.916Z,61.00
2018-03-21T20:02:41.562Z,60.00
2018-03-21T20:05:09.176Z,59.10
2018-03-21T20:07:36.769Z,58.60
2018-03-21T20:10:04.406Z,58.30
2018-03-21T20:12:33.468Z,57.70
2018-03-21T20:15:01.201Z,57.70
2018-03-21T20:17:28.903Z,57.60
2018-03-21T20:19:56.484Z,57.60
2018-03-21T20:22:24.528Z,58.90
2018-03-21T20:24:52.184Z,58.90
2018-03-21T20:27:19.889Z,58.40
2018-03-21T20:29:47.517Z,59.70
2018-03-21T20:32:15.149Z,59.20
2018-03-21T20:34:42.830Z,59.80
2018-03-21T20:37:10.476Z,59.80
2018-03-21T20:39:38.095Z,60.80
2018-03-21T20:42:06.182Z,60.80
2018-03-21T20:44:33.835Z,60.80
2018-03-21T20:47:01.439Z,61.10
2018-03-21T20:49:30.277Z,60.40
2018-03-21T20:51:58.383Z,61.00
2018-03-21T20:54:28.836Z,61.00
2018-03-21T20:56:56.558Z,62.20
2018-03-21T20:59:24.103Z,61.20
2018-03-21T21:01:51.707Z,61.70
2018-03-21T21:04:19.261Z,62.40
2018-03-21T21:06:46.878Z,62.40
2018-03-21T21:09:14.866Z,61.10
2018-03-21T21:11:42.503Z,61.10
2018-03-21T21:14:10.994Z,64.00
2018-03-21T21:16:39.025Z,63.20
2018-03-21T21:19:06.974Z,63.20
2018-03-21T21:21:34.642Z,63.90
2018-03-21T21:24:02.315Z,63.50
2018-03-21T21:26:30.074Z,62.30
2018-03-21T21:28:57.829Z,62.50
2018-03-21T21:31:25.404Z,61.60
2018-03-21T21:33:54.792Z,62.10
2018-03-21T21:36:23.587Z,62.30
2018-03-21T21:38:51.836Z,61.60
2018-03-21T21:41:19.641Z,61.50
2018-03-21T21:43:48.283Z,61.30
2018-03-21T21:46:31.696Z,62.20
2018-03-21T21:49:11.529Z,64.30
2018-03-21T21:51:42.520Z,66.00
2018-03-21T21:54:12.026Z,68.10
2018-03-21T21:56:39.680Z,67.70
2018-03-21T21:59:07.365Z,66.90
2018-03-21T22:01:35.123Z,66.50
2018-03-21T22:04:02.893Z,67.00
2018-03-21T22:06:30.691Z,65.10
2018-03-21T22:08:59.244Z,64.30
2018-03-21T22:11:26.888Z,62.80
2018-03-21T22:13:54.622Z,62.00
2018-03-21T22:16:22.778Z,63.00
2018-03-21T22:18:50.551Z,63.70
2018-03-21T22:21:18.765Z,65.90
2018-03-21T22:23:47.447Z,65.90
2018-03-21T22:26:15.079Z,65.30
2018-03-21T22:28:42.858Z,64.70
2018-03-21T22:31:10.508Z,66.10
2018-03-21T22:33:38.641Z,67.60
2018-03-21T22:36:06.366Z,67.60
2018-03-21T22:38:34.211Z,68.60
2018-03-21T22:41:01.804Z,69.10
2018-03-21T22:43:29.409Z,69.20
2018-03-21T22:45:58.334Z,70.50
2018-03-21T22:48:27.176Z,70.90
2018-03-21T22:50:55.260Z,71.30
2018-03-21T22:53:22.955Z,70.70
2018-03-21T22:55:52.595Z,71.10
2018-03-21T22:58:23.249Z,71.80
2018-03-21T23:00:50.996Z,71.20
2018-03-21T23:03:18.897Z,71.20
2018-03-21T23:05:46.573Z,70.90
2018-03-21T23:08:14.608Z,70.70
2018-03-21T23:10:42.197Z,70.70
2018-03-21T23:13:09.774Z,70.50
2018-03-21T23:15:38.013Z,71.90
2018-03-21T23:18:05.899Z,71.90
2018-03-21T23:20:34.040Z,71.90
2018-03-21T23:23:01.896Z,71.90
2018-03-21T23:25:30.275Z,72.60
2018-03-21T23:27:57.961Z,71.80
2018-03-21T23:30:25.579Z,72.10
2018-03-21T23:32:54.269Z,72.20
2018-03-21T23:35:21.902Z,72.60
2018-03-21T23:37:50.012Z,73.40
2018-03-21T23:40:17.594Z,73.40
2018-03-21T23:42:45.218Z,72.60
2018-03-21T23:45:12.854Z,73.30
2018-03-21T23:47:40.853Z,73.80
2018-03-21T23:50:08.442Z,73.80
2018-03-21T23:52:36.037Z,73.90
2018-03-21T23:55:04.053Z,74.40
2018-03-21T23:57:31.702Z,74.40
2018-03-21T23:59:59.435Z,74.00
